sensor_id;sensor_type;location;lat;lon;timestamp;P1;durP1;ratioP1;P2;durP2;ratioP2
20705;SDS011;10514;49.468;11.044;2023-08-21T00:00:49;84.03;;;37.42;;
20705;SDS011;10514;49.468;11.044;2023-08-21T00:03:15;83.43;;;37.35;;
20705;SDS011;10514;49.468;11.044;2023-08-21T00:05:40;83.93;;;37.45;;
20705;SDS011;10514;49.468;11.044;2023-08-21T00:08:06;84.43;;;37.17;;
20705;SDS011;10514;49.468;11.044;2023-08-21T00:10:31;84.90;;;37.72;;
20705;SDS011;10514;49.468;11.044;2023-08-21T00:12:58;84.00;;;37.53;;
20705;SDS011;10514;49.468;11.044;2023-08-21T00:15:23;83.75;;;36.85;;
20705;SDS011;10514;49.468;11.044;2023-08-21T00:17:49;83.97;;;37.35;;
20705;SDS011;10514;49.468;11.044;2023-08-21T00:20:14;84.78;;;37.70;;
20705;SDS011;10514;49.468;11.044;2023-08-21T00:22:40;84.82;;;37.67;;
20705;SDS011;10514;49.468;11.044;2023-08-21T00:25:05;84.55;;;37.53;;
20705;SDS011;10514;49.468;11.044;2023-08-21T00:27:31;84.47;;;37.55;;
20705;SDS011;10514;49.468;11.044;2023-08-21T00:29:58;85.05;;;37.92;;
20705;SDS011;10514;49.468;11.044;2023-08-21T00:32:25;83.82;;;37.22;;
20705;SDS011;10514;49.468;11.044;2023-08-21T00:34:50;83.80;;;37.60;;
20705;SDS011;10514;49.468;11.044;2023-08-21T00:37:16;84.25;;;37.75;;
20705;SDS011;10514;49.468;11.044;2023-08-21T00:39:41;83.80;;;37.03;;
20705;SDS011;10514;49.468;11.044;2023-08-21T00:42:07;84.85;;;37.25;;
20705;SDS011;10514;49.468;11.044;2023-08-21T00:44:32;84.88;;;37.92;;
20705;SDS011;10514;49.468;11.044;2023-08-21T00:46:58;84.88;;;37.47;;
20705;SDS011;10514;49.468;11.044;2023-08-21T00:49:24;84.97;;;37.80;;
20705;SDS011;10514;49.468;11.044;2023-08-21T00:51:50;84.13;;;37.72;;
20705;SDS011;10514;49.468;11.044;2023-08-21T00:54:16;83.72;;;37.35;;
20705;SDS011;10514;49.468;11.044;2023-08-21T00:56:42;84.43;;;37.20;;
20705;SDS011;10514;49.468;11.044;2023-08-21T00:59:09;84.68;;;37.58;;
20705;SDS011;10514;49.468;11.044;2023-08-21T01:01:35;84.93;;;38.25;;
20705;SDS011;10514;49.468;11.044;2023-08-21T01:04:02;83.60;;;37.25;;
20705;SDS011;10514;49.468;11.044;2023-08-21T01:06:28;84.43;;;37.72;;
20705;SDS011;10514;49.468;11.044;2023-08-21T01:08:57;84.75;;;38.05;;
20705;SDS011;10514;49.468;11.044;2023-08-21T01:11:27;83.90;;;37.13;;
20705;SDS011;10514;49.468;11.044;2023-08-21T01:16:45;84.00;;;37.17;;
20705;SDS011;10514;49.468;11.044;2023-08-21T01:19:20;84.78;;;37.80;;
20705;SDS011;10514;49.468;11.044;2023-08-21T01:21:48;84.85;;;37.97;;
20705;SDS011;10514;49.468;11.044;2023-08-21T01:24:14;84.40;;;36.95;;
20705;SDS011;10514;49.468;11.044;2023-08-21T01:26:39;85.97;;;38.30;;
20705;SDS011;10514;49.468;11.044;2023-08-21T01:29:05;84.47;;;37.15;;
20705;SDS011;10514;49.468;11.044;2023-08-21T01:31:31;84.68;;;37.33;;
20705;SDS011;10514;49.468;11.044;2023-08-21T01:34:03;84.80;;;37.35;;
20705;SDS011;10514;49.468;11.044;2023-08-21T01:36:31;83.85;;;37.25;;
20705;SDS011;10514;49.468;11.044;2023-08-21T01:38:57;83.53;;;36.83;;
20705;SDS011;10514;49.468;11.044;2023-08-21T01:41:23;83.07;;;36.70;;
20705;SDS011;10514;49.468;11.044;2023-08-21T01:43:49;83.80;;;37.35;;
20705;SDS011;10514;49.468;11.044;2023-08-21T01:46:14;84.05;;;37.40;;
20705;SDS011;10514;49.468;11.044;2023-08-21T01:48:40;84.35;;;37.55;;
20705;SDS011;10514;49.468;11.044;2023-08-21T01:51:05;84.00;;;37.58;;
20705;SDS011;10514;49.468;11.044;2023-08-21T01:53:31;83.93;;;36.85;;
20705;SDS011;10514;49.468;11.044;2023-08-21T01:55:56;84.20;;;37.35;;
20705;SDS011;10514;49.468;11.044;2023-08-21T01:58:22;84.03;;;36.85;;
20705;SDS011;10514;49.468;11.044;2023-08-21T02:00:48;83.75;;;36.88;;
20705;SDS011;10514;49.468;11.044;2023-08-21T02:03:13;84.05;;;37.15;;
20705;SDS011;10514;49.468;11.044;2023-08-21T02:05:40;84.32;;;36.97;;
20705;SDS011;10514;49.468;11.044;2023-08-21T02:08:06;84.28;;;37.65;;
20705;SDS011;10514;49.468;11.044;2023-08-21T02:10:32;84.10;;;36.78;;
20705;SDS011;10514;49.468;11.044;2023-08-21T02:12:57;85.15;;;38.63;;
20705;SDS011;10514;49.468;11.044;2023-08-21T02:15:23;84.70;;;37.17;;
20705;SDS011;10514;49.468;11.044;2023-08-21T02:17:48;84.85;;;37.50;;
20705;SDS011;10514;49.468;11.044;2023-08-21T02:20:14;84.57;;;37.13;;
20705;SDS011;10514;49.468;11.044;2023-08-21T02:22:40;84.32;;;37.40;;
20705;SDS011;10514;49.468;11.044;2023-08-21T02:25:05;84.53;;;37.25;;
20705;SDS011;10514;49.468;11.044;2023-08-21T02:27:31;84.78;;;37.35;;
20705;SDS011;10514;49.468;11.044;2023-08-21T02:29:56;85.05;;;37.75;;
20705;SDS011;10514;49.468;11.044;2023-08-21T02:32:22;85.03;;;37.90;;
20705;SDS011;10514;49.468;11.044;2023-08-21T02:34:47;85.05;;;37.35;;
20705;SDS011;10514;49.468;11.044;2023-08-21T02:37:13;85.03;;;37.25;;
20705;SDS011;10514;49.468;11.044;2023-08-21T02:39:38;85.45;;;37.25;;
20705;SDS011;10514;49.468;11.044;2023-08-21T02:42:04;85.28;;;37.17;;
20705;SDS011;10514;49.468;11.044;2023-08-21T02:44:29;85.38;;;37.38;;
20705;SDS011;10514;49.468;11.044;2023-08-21T02:46:55;85.82;;;38.03;;
20705;SDS011;10514;49.468;11.044;2023-08-21T02:49:21;84.97;;;37.38;;
20705;SDS011;10514;49.468;11.044;2023-08-21T02:51:46;84.82;;;37.45;;
20705;SDS011;10514;49.468;11.044;2023-08-21T02:54:12;84.50;;;37.25;;
20705;SDS011;10514;49.468;11.044;2023-08-21T02:56:37;85.43;;;37.55;;
20705;SDS011;10514;49.468;11.044;2023-08-21T02:59:03;84.50;;;37.35;;
20705;SDS011;10514;49.468;11.044;2023-08-21T03:01:28;84.28;;;36.80;;
20705;SDS011;10514;49.468;11.044;2023-08-21T03:03:54;84.10;;;36.80;;
20705;SDS011;10514;49.468;11.044;2023-08-21T03:06:19;84.30;;;37.70;;
20705;SDS011;10514;49.468;11.044;2023-08-21T03:08:45;83.63;;;36.55;;
20705;SDS011;10514;49.468;11.044;2023-08-21T03:11:11;83.18;;;36.45;;
20705;SDS011;10514;49.468;11.044;2023-08-21T03:13:37;82.50;;;36.17;;
20705;SDS011;10514;49.468;11.044;2023-08-21T03:16:03;81.20;;;36.15;;
20705;SDS011;10514;49.468;11.044;2023-08-21T03:18:30;83.72;;;37.00;;
20705;SDS011;10514;49.468;11.044;2023-08-21T03:20:56;83.63;;;36.85;;
20705;SDS011;10514;49.468;11.044;2023-08-21T03:23:22;83.03;;;36.58;;
20705;SDS011;10514;49.468;11.044;2023-08-21T03:25:48;83.07;;;36.70;;
20705;SDS011;10514;49.468;11.044;2023-08-21T03:28:16;82.95;;;36.55;;
20705;SDS011;10514;49.468;11.044;2023-08-21T03:30:42;82.68;;;36.60;;
20705;SDS011;10514;49.468;11.044;2023-08-21T03:33:07;82.82;;;36.47;;
20705;SDS011;10514;49.468;11.044;2023-08-21T03:35:33;83.28;;;37.15;;
20705;SDS011;10514;49.468;11.044;2023-08-21T03:37:59;83.03;;;36.95;;
20705;SDS011;10514;49.468;11.044;2023-08-21T03:40:24;83.03;;;36.90;;
20705;SDS011;10514;49.468;11.044;2023-08-21T03:42:50;82.38;;;36.53;;
20705;SDS011;10514;49.468;11.044;2023-08-21T03:45:16;82.88;;;36.67;;
20705;SDS011;10514;49.468;11.044;2023-08-21T03:47:41;83.88;;;37.10;;
20705;SDS011;10514;49.468;11.044;2023-08-21T03:50:07;83.28;;;36.90;;
20705;SDS011;10514;49.468;11.044;2023-08-21T03:52:33;83.30;;;36.85;;
20705;SDS011;10514;49.468;11.044;2023-08-21T03:54:58;83.15;;;36.85;;
20705;SDS011;10514;49.468;11.044;2023-08-21T03:57:24;83.40;;;37.13;;
20705;SDS011;10514;49.468;11.044;2023-08-21T03:59:49;81.32;;;36.20;;
20705;SDS011;10514;49.468;11.044;2023-08-21T04:02:16;81.90;;;36.83;;
20705;SDS011;10514;49.468;11.044;2023-08-21T04:04:41;81.72;;;36.72;;
20705;SDS011;10514;49.468;11.044;2023-08-21T04:07:07;81.45;;;36.80;;
20705;SDS011;10514;49.468;11.044;2023-08-21T04:09:32;81.13;;;36.42;;
20705;SDS011;10514;49.468;11.044;2023-08-21T04:11:58;82.13;;;36.67;;
20705;SDS011;10514;49.468;11.044;2023-08-21T04:14:23;81.28;;;36.45;;
20705;SDS011;10514;49.468;11.044;2023-08-21T04:16:48;82.28;;;36.95;;
20705;SDS011;10514;49.468;11.044;2023-08-21T04:19:14;81.75;;;36.70;;
20705;SDS011;10514;49.468;11.044;2023-08-21T04:21:40;82.43;;;36.67;;
20705;SDS011;10514;49.468;11.044;2023-08-21T04:24:05;81.82;;;36.42;;
20705;SDS011;10514;49.468;11.044;2023-08-21T04:26:32;82.65;;;37.25;;
20705;SDS011;10514;49.468;11.044;2023-08-21T04:28:57;82.35;;;36.97;;
20705;SDS011;10514;49.468;11.044;2023-08-21T04:31:23;82.47;;;36.95;;
20705;SDS011;10514;49.468;11.044;2023-08-21T04:33:49;82.85;;;36.85;;
20705;SDS011;10514;49.468;11.044;2023-08-21T04:36:15;83.28;;;37.58;;
20705;SDS011;10514;49.468;11.044;2023-08-21T04:38:41;82.45;;;36.85;;
20705;SDS011;10514;49.468;11.044;2023-08-21T04:41:07;82.15;;;36.67;;
20705;SDS011;10514;49.468;11.044;2023-08-21T04:43:33;82.22;;;36.95;;
20705;SDS011;10514;49.468;11.044;2023-08-21T04:45:58;82.43;;;36.47;;
20705;SDS011;10514;49.468;11.044;2023-08-21T04:48:24;83.43;;;37.83;;
20705;SDS011;10514;49.468;11.044;2023-08-21T04:50:50;83.55;;;37.38;;
20705;SDS011;10514;49.468;11.044;2023-08-21T04:53:15;83.45;;;37.65;;
20705;SDS011;10514;49.468;11.044;2023-08-21T04:55:41;82.13;;;36.88;;
20705;SDS011;10514;49.468;11.044;2023-08-21T04:58:07;83.82;;;37.05;;
20705;SDS011;10514;49.468;11.044;2023-08-21T05:00:33;83.28;;;36.92;;
20705;SDS011;10514;49.468;11.044;2023-08-21T05:02:58;83.15;;;36.72;;
20705;SDS011;10514;49.468;11.044;2023-08-21T05:05:24;83.97;;;36.78;;
20705;SDS011;10514;49.468;11.044;2023-08-21T05:07:49;84.15;;;36.92;;
20705;SDS011;10514;49.468;11.044;2023-08-21T05:10:16;84.13;;;36.83;;
20705;SDS011;10514;49.468;11.044;2023-08-21T05:12:42;83.95;;;37.65;;
20705;SDS011;10514;49.468;11.044;2023-08-21T05:15:07;84.35;;;37.10;;
20705;SDS011;10514;49.468;11.044;2023-08-21T05:17:33;85.22;;;36.85;;
20705;SDS011;10514;49.468;11.044;2023-08-21T05:19:59;84.38;;;36.63;;
20705;SDS011;10514;49.468;11.044;2023-08-21T05:22:25;87.75;;;38.05;;
20705;SDS011;10514;49.468;11.044;2023-08-21T05:24:51;86.70;;;37.35;;
20705;SDS011;10514;49.468;11.044;2023-08-21T05:27:16;88.00;;;37.55;;
20705;SDS011;10514;49.468;11.044;2023-08-21T05:29:42;88.90;;;38.30;;
20705;SDS011;10514;49.468;11.044;2023-08-21T05:32:07;88.28;;;38.25;;
20705;SDS011;10514;49.468;11.044;2023-08-21T05:34:33;87.25;;;37.45;;
20705;SDS011;10514;49.468;11.044;2023-08-21T05:36:58;89.15;;;38.63;;
20705;SDS011;10514;49.468;11.044;2023-08-21T05:39:24;88.72;;;38.25;;
20705;SDS011;10514;49.468;11.044;2023-08-21T05:41:49;88.72;;;37.55;;
20705;SDS011;10514;49.468;11.044;2023-08-21T05:44:15;89.65;;;38.17;;
20705;SDS011;10514;49.468;11.044;2023-08-21T05:46:40;89.60;;;38.25;;
20705;SDS011;10514;49.468;11.044;2023-08-21T05:49:06;90.22;;;38.13;;
20705;SDS011;10514;49.468;11.044;2023-08-21T05:51:31;90.53;;;38.17;;
20705;SDS011;10514;49.468;11.044;2023-08-21T05:53:57;90.03;;;38.03;;
20705;SDS011;10514;49.468;11.044;2023-08-21T05:56:22;91.30;;;38.67;;
20705;SDS011;10514;49.468;11.044;2023-08-21T05:58:48;91.40;;;38.33;;
20705;SDS011;10514;49.468;11.044;2023-08-21T06:01:14;89.45;;;37.70;;
20705;SDS011;10514;49.468;11.044;2023-08-21T06:03:40;88.30;;;37.15;;
20705;SDS011;10514;49.468;11.044;2023-08-21T06:06:05;89.28;;;37.80;;
20705;SDS011;10514;49.468;11.044;2023-08-21T06:08:31;89.53;;;37.75;;
20705;SDS011;10514;49.468;11.044;2023-08-21T06:10:57;89.20;;;37.47;;
20705;SDS011;10514;49.468;11.044;2023-08-21T06:13:22;90.35;;;38.55;;
20705;SDS011;10514;49.468;11.044;2023-08-21T06:15:48;89.90;;;38.25;;
20705;SDS011;10514;49.468;11.044;2023-08-21T06:18:13;91.10;;;38.10;;
20705;SDS011;10514;49.468;11.044;2023-08-21T06:20:42;90.88;;;38.35;;
20705;SDS011;10514;49.468;11.044;2023-08-21T06:23:08;90.97;;;38.13;;
20705;SDS011;10514;49.468;11.044;2023-08-21T06:25:35;90.97;;;38.55;;
20705;SDS011;10514;49.468;11.044;2023-08-21T06:28:01;88.88;;;37.88;;
20705;SDS011;10514;49.468;11.044;2023-08-21T06:30:27;89.40;;;37.80;;
20705;SDS011;10514;49.468;11.044;2023-08-21T06:32:52;89.55;;;37.88;;
20705;SDS011;10514;49.468;11.044;2023-08-21T06:35:18;89.55;;;38.10;;
20705;SDS011;10514;49.468;11.044;2023-08-21T06:37:44;88.93;;;37.78;;
20705;SDS011;10514;49.468;11.044;2023-08-21T06:40:09;89.97;;;38.22;;
20705;SDS011;10514;49.468;11.044;2023-08-21T06:42:36;92.05;;;38.90;;
20705;SDS011;10514;49.468;11.044;2023-08-21T06:45:02;93.32;;;39.08;;
20705;SDS011;10514;49.468;11.044;2023-08-21T06:47:28;96.00;;;39.17;;
20705;SDS011;10514;49.468;11.044;2023-08-21T06:49:54;97.78;;;39.75;;
20705;SDS011;10514;49.468;11.044;2023-08-21T06:52:19;102.77;;;40.00;;
20705;SDS011;10514;49.468;11.044;2023-08-21T06:54:45;101.72;;;40.55;;
20705;SDS011;10514;49.468;11.044;2023-08-21T06:57:10;101.30;;;39.80;;
20705;SDS011;10514;49.468;11.044;2023-08-21T06:59:36;102.78;;;41.22;;
20705;SDS011;10514;49.468;11.044;2023-08-21T07:02:03;101.78;;;39.90;;
20705;SDS011;10514;49.468;11.044;2023-08-21T07:04:31;102.65;;;40.45;;
20705;SDS011;10514;49.468;11.044;2023-08-21T07:07:00;103.78;;;40.63;;
20705;SDS011;10514;49.468;11.044;2023-08-21T07:09:25;105.57;;;40.88;;
20705;SDS011;10514;49.468;11.044;2023-08-21T07:11:51;105.90;;;40.78;;
20705;SDS011;10514;49.468;11.044;2023-08-21T07:14:16;107.93;;;40.92;;
20705;SDS011;10514;49.468;11.044;2023-08-21T07:16:42;110.47;;;41.58;;
20705;SDS011;10514;49.468;11.044;2023-08-21T07:19:08;113.50;;;42.05;;
20705;SDS011;10514;49.468;11.044;2023-08-21T07:21:34;112.35;;;41.17;;
20705;SDS011;10514;49.468;11.044;2023-08-21T07:24:02;114.15;;;41.78;;
20705;SDS011;10514;49.468;11.044;2023-08-21T07:26:27;115.10;;;42.20;;
20705;SDS011;10514;49.468;11.044;2023-08-21T07:28:53;114.50;;;41.90;;
20705;SDS011;10514;49.468;11.044;2023-08-21T07:31:19;115.25;;;41.95;;
20705;SDS011;10514;49.468;11.044;2023-08-21T07:33:44;114.90;;;41.97;;
20705;SDS011;10514;49.468;11.044;2023-08-21T07:36:10;116.57;;;42.85;;
20705;SDS011;10514;49.468;11.044;2023-08-21T07:38:41;116.55;;;42.72;;
20705;SDS011;10514;49.468;11.044;2023-08-21T07:41:08;116.72;;;42.60;;
20705;SDS011;10514;49.468;11.044;2023-08-21T07:43:35;117.57;;;44.08;;
20705;SDS011;10514;49.468;11.044;2023-08-21T07:46:08;117.35;;;42.65;;
20705;SDS011;10514;49.468;11.044;2023-08-21T07:48:41;116.82;;;42.10;;
20705;SDS011;10514;49.468;11.044;2023-08-21T07:51:07;118.40;;;42.40;;
20705;SDS011;10514;49.468;11.044;2023-08-21T07:53:33;121.95;;;44.55;;
20705;SDS011;10514;49.468;11.044;2023-08-21T07:56:00;125.90;;;44.60;;
20705;SDS011;10514;49.468;11.044;2023-08-21T07:58:26;123.50;;;43.17;;
20705;SDS011;10514;49.468;11.044;2023-08-21T08:00:52;119.40;;;41.95;;
20705;SDS011;10514;49.468;11.044;2023-08-21T08:03:17;120.75;;;41.92;;
20705;SDS011;10514;49.468;11.044;2023-08-21T08:05:43;125.43;;;43.78;;
20705;SDS011;10514;49.468;11.044;2023-08-21T08:08:09;127.15;;;43.50;;
20705;SDS011;10514;49.468;11.044;2023-08-21T08:10:38;127.80;;;43.85;;
20705;SDS011;10514;49.468;11.044;2023-08-21T08:13:04;130.27;;;44.42;;
20705;SDS011;10514;49.468;11.044;2023-08-21T08:15:30;130.18;;;43.85;;
20705;SDS011;10514;49.468;11.044;2023-08-21T08:17:56;131.10;;;44.10;;
20705;SDS011;10514;49.468;11.044;2023-08-21T08:20:22;131.15;;;43.72;;
20705;SDS011;10514;49.468;11.044;2023-08-21T08:22:48;133.40;;;44.42;;
20705;SDS011;10514;49.468;11.044;2023-08-21T08:25:13;134.00;;;43.83;;
20705;SDS011;10514;49.468;11.044;2023-08-21T08:27:39;134.48;;;45.17;;
20705;SDS011;10514;49.468;11.044;2023-08-21T08:30:05;135.30;;;44.67;;
20705;SDS011;10514;49.468;11.044;2023-08-21T08:32:31;135.10;;;45.88;;
20705;SDS011;10514;49.468;11.044;2023-08-21T08:34:56;133.60;;;44.58;;
20705;SDS011;10514;49.468;11.044;2023-08-21T08:37:22;133.25;;;44.50;;
20705;SDS011;10514;49.468;11.044;2023-08-21T08:39:48;135.15;;;44.72;;
20705;SDS011;10514;49.468;11.044;2023-08-21T08:42:14;135.17;;;44.37;;
20705;SDS011;10514;49.468;11.044;2023-08-21T08:44:41;137.60;;;45.40;;
20705;SDS011;10514;49.468;11.044;2023-08-21T08:47:08;137.82;;;44.88;;
20705;SDS011;10514;49.468;11.044;2023-08-21T08:49:39;140.52;;;46.67;;
20705;SDS011;10514;49.468;11.044;2023-08-21T08:52:05;141.25;;;45.35;;
20705;SDS011;10514;49.468;11.044;2023-08-21T08:54:30;140.13;;;45.53;;
20705;SDS011;10514;49.468;11.044;2023-08-21T08:56:57;139.50;;;45.42;;
20705;SDS011;10514;49.468;11.044;2023-08-21T08:59:23;136.50;;;44.35;;
20705;SDS011;10514;49.468;11.044;2023-08-21T09:01:48;143.23;;;45.53;;
20705;SDS011;10514;49.468;11.044;2023-08-21T09:04:14;141.95;;;45.80;;
20705;SDS011;10514;49.468;11.044;2023-08-21T09:06:40;138.07;;;45.90;;
20705;SDS011;10514;49.468;11.044;2023-08-21T09:09:06;139.07;;;45.33;;
20705;SDS011;10514;49.468;11.044;2023-08-21T09:11:33;137.65;;;45.33;;
20705;SDS011;10514;49.468;11.044;2023-08-21T09:13:58;137.38;;;44.75;;
20705;SDS011;10514;49.468;11.044;2023-08-21T09:16:25;138.10;;;45.08;;
20705;SDS011;10514;49.468;11.044;2023-08-21T09:18:52;142.07;;;46.15;;
20705;SDS011;10514;49.468;11.044;2023-08-21T09:21:22;140.65;;;45.78;;
20705;SDS011;10514;49.468;11.044;2023-08-21T09:23:49;140.38;;;45.30;;
20705;SDS011;10514;49.468;11.044;2023-08-21T09:26:21;140.43;;;44.55;;
20705;SDS011;10514;49.468;11.044;2023-08-21T09:28:47;142.73;;;45.83;;
20705;SDS011;10514;49.468;11.044;2023-08-21T09:31:14;141.15;;;45.47;;
20705;SDS011;10514;49.468;11.044;2023-08-21T09:33:39;140.50;;;45.40;;
20705;SDS011;10514;49.468;11.044;2023-08-21T09:36:06;140.70;;;45.45;;
20705;SDS011;10514;49.468;11.044;2023-08-21T09:38:33;141.30;;;45.90;;
20705;SDS011;10514;49.468;11.044;2023-08-21T09:41:00;141.10;;;45.08;;
20705;SDS011;10514;49.468;11.044;2023-08-21T09:43:26;145.00;;;47.03;;
20705;SDS011;10514;49.468;11.044;2023-08-21T09:45:53;143.30;;;47.40;;
20705;SDS011;10514;49.468;11.044;2023-08-21T09:48:26;139.18;;;45.65;;
20705;SDS011;10514;49.468;11.044;2023-08-21T09:50:52;138.30;;;44.95;;
20705;SDS011;10514;49.468;11.044;2023-08-21T09:53:20;138.13;;;44.65;;
20705;SDS011;10514;49.468;11.044;2023-08-21T09:55:51;137.95;;;45.38;;
20705;SDS011;10514;49.468;11.044;2023-08-21T09:58:19;139.38;;;45.20;;
20705;SDS011;10514;49.468;11.044;2023-08-21T10:00:45;139.18;;;45.42;;
20705;SDS011;10514;49.468;11.044;2023-08-21T10:03:13;137.90;;;46.22;;
20705;SDS011;10514;49.468;11.044;2023-08-21T10:05:44;136.35;;;45.22;;
20705;SDS011;10514;49.468;11.044;2023-08-21T10:08:12;134.70;;;45.30;;
20705;SDS011;10514;49.468;11.044;2023-08-21T10:10:40;134.65;;;45.25;;
20705;SDS011;10514;49.468;11.044;2023-08-21T10:13:06;132.65;;;44.30;;
20705;SDS011;10514;49.468;11.044;2023-08-21T10:15:33;136.35;;;46.13;;
20705;SDS011;10514;49.468;11.044;2023-08-21T10:20:46;134.68;;;44.90;;
20705;SDS011;10514;49.468;11.044;2023-08-21T10:23:23;141.00;;;46.60;;
20705;SDS011;10514;49.468;11.044;2023-08-21T10:25:59;134.88;;;44.95;;
20705;SDS011;10514;49.468;11.044;2023-08-21T10:28:40;138.80;;;46.67;;
20705;SDS011;10514;49.468;11.044;2023-08-21T10:33:53;140.23;;;45.95;;
20705;SDS011;10514;49.468;11.044;2023-08-21T10:39:19;141.10;;;45.65;;
20705;SDS011;10514;49.468;11.044;2023-08-21T10:41:55;139.75;;;45.50;;
20705;SDS011;10514;49.468;11.044;2023-08-21T10:44:38;143.23;;;46.53;;
20705;SDS011;10514;49.468;11.044;2023-08-21T10:52:25;145.13;;;45.90;;
20705;SDS011;10514;49.468;11.044;2023-08-21T10:54:53;145.75;;;46.45;;
20705;SDS011;10514;49.468;11.044;2023-08-21T10:57:21;140.77;;;45.65;;
20705;SDS011;10514;49.468;11.044;2023-08-21T10:59:52;139.45;;;45.83;;
20705;SDS011;10514;49.468;11.044;2023-08-21T11:02:21;141.50;;;45.15;;
20705;SDS011;10514;49.468;11.044;2023-08-21T11:04:48;136.45;;;45.95;;
20705;SDS011;10514;49.468;11.044;2023-08-21T11:07:14;136.98;;;45.20;;
20705;SDS011;10514;49.468;11.044;2023-08-21T11:09:40;136.35;;;45.88;;
20705;SDS011;10514;49.468;11.044;2023-08-21T11:12:06;134.25;;;45.05;;
20705;SDS011;10514;49.468;11.044;2023-08-21T11:14:32;132.05;;;45.35;;
20705;SDS011;10514;49.468;11.044;2023-08-21T11:16:59;129.70;;;44.90;;
20705;SDS011;10514;49.468;11.044;2023-08-21T11:19:24;132.18;;;46.17;;
20705;SDS011;10514;49.468;11.044;2023-08-21T11:21:50;133.48;;;45.53;;
20705;SDS011;10514;49.468;11.044;2023-08-21T11:24:16;131.77;;;45.35;;
20705;SDS011;10514;49.468;11.044;2023-08-21T11:26:42;128.35;;;45.22;;
20705;SDS011;10514;49.468;11.044;2023-08-21T11:29:07;128.20;;;44.45;;
20705;SDS011;10514;49.468;11.044;2023-08-21T11:31:33;133.52;;;46.17;;
20705;SDS011;10514;49.468;11.044;2023-08-21T11:33:58;133.27;;;45.80;;
20705;SDS011;10514;49.468;11.044;2023-08-21T11:36:24;132.00;;;44.92;;
20705;SDS011;10514;49.468;11.044;2023-08-21T11:39:00;128.85;;;43.85;;
20705;SDS011;10514;49.468;11.044;2023-08-21T11:41:28;129.45;;;44.78;;
20705;SDS011;10514;49.468;11.044;2023-08-21T11:43:57;125.70;;;45.53;;
20705;SDS011;10514;49.468;11.044;2023-08-21T11:46:28;123.18;;;43.80;;
20705;SDS011;10514;49.468;11.044;2023-08-21T11:48:53;123.18;;;44.08;;
20705;SDS011;10514;49.468;11.044;2023-08-21T11:51:19;124.10;;;44.03;;
20705;SDS011;10514;49.468;11.044;2023-08-21T11:53:45;123.65;;;43.58;;
20705;SDS011;10514;49.468;11.044;2023-08-21T11:56:13;123.03;;;43.63;;
20705;SDS011;10514;49.468;11.044;2023-08-21T11:58:40;121.65;;;44.80;;
20705;SDS011;10514;49.468;11.044;2023-08-21T12:01:07;122.82;;;44.58;;
20705;SDS011;10514;49.468;11.044;2023-08-21T12:03:36;122.82;;;44.50;;
20705;SDS011;10514;49.468;11.044;2023-08-21T12:06:04;121.25;;;44.10;;
20705;SDS011;10514;49.468;11.044;2023-08-21T12:08:31;122.05;;;44.20;;
20705;SDS011;10514;49.468;11.044;2023-08-21T12:10:56;121.80;;;43.65;;
20705;SDS011;10514;49.468;11.044;2023-08-21T12:13:22;123.05;;;46.08;;
20705;SDS011;10514;49.468;11.044;2023-08-21T12:15:47;120.85;;;43.60;;
20705;SDS011;10514;49.468;11.044;2023-08-21T12:18:13;122.65;;;44.17;;
20705;SDS011;10514;49.468;11.044;2023-08-21T12:20:38;120.40;;;43.35;;
20705;SDS011;10514;49.468;11.044;2023-08-21T12:23:04;121.82;;;43.65;;
20705;SDS011;10514;49.468;11.044;2023-08-21T12:25:30;120.53;;;43.75;;
20705;SDS011;10514;49.468;11.044;2023-08-21T12:27:56;117.28;;;42.75;;
20705;SDS011;10514;49.468;11.044;2023-08-21T12:30:22;120.28;;;44.15;;
20705;SDS011;10514;49.468;11.044;2023-08-21T12:32:48;119.07;;;43.20;;
20705;SDS011;10514;49.468;11.044;2023-08-21T12:35:14;118.97;;;44.00;;
20705;SDS011;10514;49.468;11.044;2023-08-21T12:37:39;116.75;;;42.80;;
20705;SDS011;10514;49.468;11.044;2023-08-21T12:40:05;114.88;;;42.67;;
20705;SDS011;10514;49.468;11.044;2023-08-21T12:42:31;116.10;;;42.72;;
20705;SDS011;10514;49.468;11.044;2023-08-21T12:44:57;116.35;;;43.00;;
20705;SDS011;10514;49.468;11.044;2023-08-21T12:47:22;118.13;;;44.92;;
20705;SDS011;10514;49.468;11.044;2023-08-21T12:49:48;116.88;;;43.70;;
20705;SDS011;10514;49.468;11.044;2023-08-21T12:52:13;111.32;;;43.20;;
20705;SDS011;10514;49.468;11.044;2023-08-21T12:54:39;113.75;;;43.28;;
20705;SDS011;10514;49.468;11.044;2023-08-21T12:57:04;114.53;;;42.78;;
20705;SDS011;10514;49.468;11.044;2023-08-21T12:59:31;116.30;;;43.35;;
20705;SDS011;10514;49.468;11.044;2023-08-21T13:01:58;116.75;;;43.03;;
20705;SDS011;10514;49.468;11.044;2023-08-21T13:04:25;116.57;;;43.40;;
20705;SDS011;10514;49.468;11.044;2023-08-21T13:06:50;115.35;;;42.95;;
20705;SDS011;10514;49.468;11.044;2023-08-21T13:09:16;114.25;;;42.80;;
20705;SDS011;10514;49.468;11.044;2023-08-21T13:11:41;114.38;;;42.70;;
20705;SDS011;10514;49.468;11.044;2023-08-21T13:14:07;113.32;;;43.10;;
20705;SDS011;10514;49.468;11.044;2023-08-21T13:16:32;113.82;;;43.13;;
20705;SDS011;10514;49.468;11.044;2023-08-21T13:18:58;113.30;;;42.88;;
20705;SDS011;10514;49.468;11.044;2023-08-21T13:21:23;112.50;;;43.05;;
20705;SDS011;10514;49.468;11.044;2023-08-21T13:23:49;111.70;;;42.75;;
20705;SDS011;10514;49.468;11.044;2023-08-21T13:26:14;108.68;;;41.65;;
20705;SDS011;10514;49.468;11.044;2023-08-21T13:28:40;106.95;;;41.78;;
20705;SDS011;10514;49.468;11.044;2023-08-21T13:31:06;106.95;;;42.50;;
20705;SDS011;10514;49.468;11.044;2023-08-21T13:33:32;105.65;;;42.72;;
20705;SDS011;10514;49.468;11.044;2023-08-21T13:36:12;104.15;;;45.50;;
20705;SDS011;10514;49.468;11.044;2023-08-21T13:38:39;101.10;;;41.00;;
20705;SDS011;10514;49.468;11.044;2023-08-21T13:41:04;100.90;;;40.90;;
20705;SDS011;10514;49.468;11.044;2023-08-21T13:43:30;100.88;;;40.60;;
20705;SDS011;10514;49.468;11.044;2023-08-21T13:45:56;100.20;;;39.40;;
20705;SDS011;10514;49.468;11.044;2023-08-21T13:48:21;101.85;;;39.85;;
20705;SDS011;10514;49.468;11.044;2023-08-21T13:50:47;100.57;;;39.40;;
20705;SDS011;10514;49.468;11.044;2023-08-21T13:53:13;106.30;;;41.85;;
20705;SDS011;10514;49.468;11.044;2023-08-21T13:55:38;108.30;;;42.30;;
20705;SDS011;10514;49.468;11.044;2023-08-21T13:58:04;109.05;;;41.70;;
20705;SDS011;10514;49.468;11.044;2023-08-21T14:00:29;108.60;;;41.53;;
20705;SDS011;10514;49.468;11.044;2023-08-21T14:02:55;110.57;;;42.60;;
20705;SDS011;10514;49.468;11.044;2023-08-21T14:05:20;109.55;;;41.42;;
20705;SDS011;10514;49.468;11.044;2023-08-21T14:07:46;111.03;;;41.83;;
20705;SDS011;10514;49.468;11.044;2023-08-21T14:10:11;110.60;;;42.28;;
20705;SDS011;10514;49.468;11.044;2023-08-21T14:12:39;110.55;;;42.40;;
20705;SDS011;10514;49.468;11.044;2023-08-21T14:15:05;107.90;;;42.55;;